Princess Anne, Maryland
Current Conditions -  °F | °C
As of 7:54 PM on Sunday 23 Nov 2014 (Local Time) from KSBY Reporting Station
Overcast Overcast  
Wind Chill: 57°   Ceiling: 4800
Heat Index: 57°   Visibility: 10mi
Dew Point: 52°   Wind: 9mph
Humidity: 83%   Direction: 130°SE
Pressure: 30.05"   Gusts: NA
Location:  38.2°N, 75.69°W
Report Text: KSBY 240054Z 13008KT 10SM FEW031 BKN048 OVC110 14/11 A3005 RMK AO2 SLP179 T01390111
Loading
Personal Weather Stations






























Interactive Weather Map New forecast layout! Learn more

10-Day Weather Forecast

Advertisements
Track Severe Weather on mobile